sensor_id;sensor_type;location;lat;lon;timestamp;P1;durP1;ratioP1;P2;durP2;ratioP2
3341;SDS011;1684;50.748;6.154;2023-04-20T00:01:44;6.67;;;4.00;;
3341;SDS011;1684;50.748;6.154;2023-04-20T00:04:13;5.77;;;4.20;;
3341;SDS011;1684;50.748;6.154;2023-04-20T00:06:43;9.83;;;4.83;;
3341;SDS011;1684;50.748;6.154;2023-04-20T00:09:12;6.03;;;3.57;;
3341;SDS011;1684;50.748;6.154;2023-04-20T00:11:41;11.53;;;4.87;;
3341;SDS011;1684;50.748;6.154;2023-04-20T00:14:09;5.67;;;2.90;;
3341;SDS011;1684;50.748;6.154;2023-04-20T00:16:38;5.13;;;3.90;;
3341;SDS011;1684;50.748;6.154;2023-04-20T00:19:06;6.50;;;3.57;;
3341;SDS011;1684;50.748;6.154;2023-04-20T00:21:34;4.70;;;3.60;;
3341;SDS011;1684;50.748;6.154;2023-04-20T00:24:04;4.17;;;3.20;;
3341;SDS011;1684;50.748;6.154;2023-04-20T00:26:32;6.13;;;4.10;;
3341;SDS011;1684;50.748;6.154;2023-04-20T00:29:01;10.50;;;4.67;;
3341;SDS011;1684;50.748;6.154;2023-04-20T00:31:29;5.27;;;3.63;;
3341;SDS011;1684;50.748;6.154;2023-04-20T00:33:58;6.40;;;4.83;;
3341;SDS011;1684;50.748;6.154;2023-04-20T00:36:26;5.70;;;3.90;;
3341;SDS011;1684;50.748;6.154;2023-04-20T00:38:55;7.70;;;3.27;;
3341;SDS011;1684;50.748;6.154;2023-04-20T00:41:24;4.13;;;3.10;;
3341;SDS011;1684;50.748;6.154;2023-04-20T00:43:52;4.60;;;3.30;;
3341;SDS011;1684;50.748;6.154;2023-04-20T00:46:21;4.60;;;3.07;;
3341;SDS011;1684;50.748;6.154;2023-04-20T00:48:50;5.77;;;3.67;;
3341;SDS011;1684;50.748;6.154;2023-04-20T00:51:18;6.90;;;3.47;;
3341;SDS011;1684;50.748;6.154;2023-04-20T00:53:46;6.10;;;3.90;;
3341;SDS011;1684;50.748;6.154;2023-04-20T00:56:15;5.37;;;3.37;;
3341;SDS011;1684;50.748;6.154;2023-04-20T00:58:45;7.87;;;3.47;;
3341;SDS011;1684;50.748;6.154;2023-04-20T01:01:14;6.50;;;3.73;;
3341;SDS011;1684;50.748;6.154;2023-04-20T01:03:43;6.07;;;3.67;;
3341;SDS011;1684;50.748;6.154;2023-04-20T01:06:12;5.20;;;3.50;;
3341;SDS011;1684;50.748;6.154;2023-04-20T01:08:44;5.97;;;3.30;;
3341;SDS011;1684;50.748;6.154;2023-04-20T01:11:13;6.27;;;3.77;;
3341;SDS011;1684;50.748;6.154;2023-04-20T01:13:41;4.90;;;2.60;;
3341;SDS011;1684;50.748;6.154;2023-04-20T01:16:11;6.20;;;3.50;;
3341;SDS011;1684;50.748;6.154;2023-04-20T01:18:40;4.40;;;3.63;;
3341;SDS011;1684;50.748;6.154;2023-04-20T01:21:09;5.07;;;3.20;;
3341;SDS011;1684;50.748;6.154;2023-04-20T01:23:39;4.07;;;3.30;;
3341;SDS011;1684;50.748;6.154;2023-04-20T01:26:08;5.90;;;4.20;;
3341;SDS011;1684;50.748;6.154;2023-04-20T01:28:36;5.33;;;3.47;;
3341;SDS011;1684;50.748;6.154;2023-04-20T01:31:05;7.83;;;4.40;;
3341;SDS011;1684;50.748;6.154;2023-04-20T01:33:34;6.13;;;3.97;;
3341;SDS011;1684;50.748;6.154;2023-04-20T01:36:03;7.83;;;4.63;;
3341;SDS011;1684;50.748;6.154;2023-04-20T01:38:31;6.30;;;3.87;;
3341;SDS011;1684;50.748;6.154;2023-04-20T01:41:01;9.37;;;5.17;;
3341;SDS011;1684;50.748;6.154;2023-04-20T01:43:31;8.27;;;4.33;;
3341;SDS011;1684;50.748;6.154;2023-04-20T01:45:59;6.80;;;5.20;;
3341;SDS011;1684;50.748;6.154;2023-04-20T01:48:28;10.33;;;6.27;;
3341;SDS011;1684;50.748;6.154;2023-04-20T01:50:56;5.90;;;4.40;;
3341;SDS011;1684;50.748;6.154;2023-04-20T01:53:24;8.67;;;5.17;;
3341;SDS011;1684;50.748;6.154;2023-04-20T01:55:53;7.50;;;5.03;;
3341;SDS011;1684;50.748;6.154;2023-04-20T01:58:22;8.30;;;4.70;;
3341;SDS011;1684;50.748;6.154;2023-04-20T02:00:51;8.07;;;4.50;;
3341;SDS011;1684;50.748;6.154;2023-04-20T02:03:19;8.37;;;4.80;;
3341;SDS011;1684;50.748;6.154;2023-04-20T02:05:48;10.93;;;5.53;;
3341;SDS011;1684;50.748;6.154;2023-04-20T02:08:16;5.87;;;5.07;;
3341;SDS011;1684;50.748;6.154;2023-04-20T02:10:44;8.90;;;5.40;;
3341;SDS011;1684;50.748;6.154;2023-04-20T02:13:12;15.00;;;6.20;;
3341;SDS011;1684;50.748;6.154;2023-04-20T02:15:42;8.50;;;5.13;;
3341;SDS011;1684;50.748;6.154;2023-04-20T02:18:11;8.80;;;5.03;;
3341;SDS011;1684;50.748;6.154;2023-04-20T02:20:41;8.10;;;5.50;;
3341;SDS011;1684;50.748;6.154;2023-04-20T02:23:09;6.70;;;4.83;;
3341;SDS011;1684;50.748;6.154;2023-04-20T02:25:37;7.13;;;5.30;;
3341;SDS011;1684;50.748;6.154;2023-04-20T02:28:06;6.97;;;5.17;;
3341;SDS011;1684;50.748;6.154;2023-04-20T02:30:34;4.20;;;3.20;;
3341;SDS011;1684;50.748;6.154;2023-04-20T02:33:03;8.70;;;4.43;;
3341;SDS011;1684;50.748;6.154;2023-04-20T02:35:32;5.47;;;3.67;;
3341;SDS011;1684;50.748;6.154;2023-04-20T02:38:00;6.23;;;3.50;;
3341;SDS011;1684;50.748;6.154;2023-04-20T02:40:29;5.33;;;3.57;;
3341;SDS011;1684;50.748;6.154;2023-04-20T02:42:57;4.83;;;3.70;;
3341;SDS011;1684;50.748;6.154;2023-04-20T02:45:25;6.07;;;3.40;;
3341;SDS011;1684;50.748;6.154;2023-04-20T02:47:53;5.53;;;3.63;;
3341;SDS011;1684;50.748;6.154;2023-04-20T02:50:23;4.80;;;3.53;;
3341;SDS011;1684;50.748;6.154;2023-04-20T02:52:52;7.90;;;5.60;;
3341;SDS011;1684;50.748;6.154;2023-04-20T02:55:20;7.40;;;3.83;;
3341;SDS011;1684;50.748;6.154;2023-04-20T02:57:48;5.77;;;2.83;;
3341;SDS011;1684;50.748;6.154;2023-04-20T03:00:17;8.67;;;3.87;;
3341;SDS011;1684;50.748;6.154;2023-04-20T03:02:45;8.77;;;3.33;;
3341;SDS011;1684;50.748;6.154;2023-04-20T03:05:14;5.23;;;3.50;;
3341;SDS011;1684;50.748;6.154;2023-04-20T03:07:44;5.40;;;3.73;;
3341;SDS011;1684;50.748;6.154;2023-04-20T03:10:12;7.70;;;3.47;;
3341;SDS011;1684;50.748;6.154;2023-04-20T03:12:40;5.40;;;3.50;;
3341;SDS011;1684;50.748;6.154;2023-04-20T03:15:09;5.20;;;3.13;;
3341;SDS011;1684;50.748;6.154;2023-04-20T03:17:37;6.33;;;3.97;;
3341;SDS011;1684;50.748;6.154;2023-04-20T03:20:06;4.47;;;3.13;;
3341;SDS011;1684;50.748;6.154;2023-04-20T03:22:34;4.73;;;2.70;;
3341;SDS011;1684;50.748;6.154;2023-04-20T03:25:04;5.07;;;3.10;;
3341;SDS011;1684;50.748;6.154;2023-04-20T03:27:32;6.60;;;4.03;;
3341;SDS011;1684;50.748;6.154;2023-04-20T03:30:01;9.13;;;4.80;;
3341;SDS011;1684;50.748;6.154;2023-04-20T03:32:29;5.63;;;3.20;;
3341;SDS011;1684;50.748;6.154;2023-04-20T03:34:58;7.13;;;4.17;;
3341;SDS011;1684;50.748;6.154;2023-04-20T03:37:26;5.50;;;4.07;;
3341;SDS011;1684;50.748;6.154;2023-04-20T03:39:54;3.60;;;2.63;;
3341;SDS011;1684;50.748;6.154;2023-04-20T03:42:24;8.10;;;3.87;;
3341;SDS011;1684;50.748;6.154;2023-04-20T03:44:52;6.70;;;4.10;;
3341;SDS011;1684;50.748;6.154;2023-04-20T03:47:20;6.50;;;3.27;;
3341;SDS011;1684;50.748;6.154;2023-04-20T03:49:49;4.33;;;2.33;;
3341;SDS011;1684;50.748;6.154;2023-04-20T03:52:17;6.73;;;3.67;;
3341;SDS011;1684;50.748;6.154;2023-04-20T03:54:45;7.00;;;4.00;;
3341;SDS011;1684;50.748;6.154;2023-04-20T03:57:13;5.80;;;3.50;;
3341;SDS011;1684;50.748;6.154;2023-04-20T03:59:43;11.00;;;3.43;;
3341;SDS011;1684;50.748;6.154;2023-04-20T04:02:11;10.30;;;4.37;;
3341;SDS011;1684;50.748;6.154;2023-04-20T04:04:39;9.27;;;5.00;;
3341;SDS011;1684;50.748;6.154;2023-04-20T04:07:08;7.70;;;4.87;;
3341;SDS011;1684;50.748;6.154;2023-04-20T04:09:37;7.43;;;3.87;;
3341;SDS011;1684;50.748;6.154;2023-04-20T04:12:06;6.00;;;4.47;;
3341;SDS011;1684;50.748;6.154;2023-04-20T04:14:34;5.17;;;3.57;;
3341;SDS011;1684;50.748;6.154;2023-04-20T04:17:04;6.10;;;3.13;;
3341;SDS011;1684;50.748;6.154;2023-04-20T04:19:33;7.53;;;3.80;;
3341;SDS011;1684;50.748;6.154;2023-04-20T04:22:01;5.97;;;4.07;;
3341;SDS011;1684;50.748;6.154;2023-04-20T04:24:29;5.73;;;3.40;;
3341;SDS011;1684;50.748;6.154;2023-04-20T04:26:58;6.40;;;3.67;;
3341;SDS011;1684;50.748;6.154;2023-04-20T04:29:27;5.33;;;3.50;;
3341;SDS011;1684;50.748;6.154;2023-04-20T04:31:55;5.27;;;3.90;;
3341;SDS011;1684;50.748;6.154;2023-04-20T04:34:25;4.70;;;3.40;;
3341;SDS011;1684;50.748;6.154;2023-04-20T04:36:55;5.53;;;3.50;;
3341;SDS011;1684;50.748;6.154;2023-04-20T04:39:23;4.13;;;2.30;;
3341;SDS011;1684;50.748;6.154;2023-04-20T04:41:52;8.03;;;4.83;;
3341;SDS011;1684;50.748;6.154;2023-04-20T04:44:20;6.90;;;4.47;;
3341;SDS011;1684;50.748;6.154;2023-04-20T04:46:48;5.60;;;3.60;;
3341;SDS011;1684;50.748;6.154;2023-04-20T04:49:16;13.03;;;5.00;;
3341;SDS011;1684;50.748;6.154;2023-04-20T04:51:47;7.73;;;4.90;;
3341;SDS011;1684;50.748;6.154;2023-04-20T04:54:15;10.37;;;5.07;;
3341;SDS011;1684;50.748;6.154;2023-04-20T04:56:43;5.30;;;3.10;;
3341;SDS011;1684;50.748;6.154;2023-04-20T04:59:12;3.57;;;1.50;;
3341;SDS011;1684;50.748;6.154;2023-04-20T05:01:40;6.53;;;3.70;;
3341;SDS011;1684;50.748;6.154;2023-04-20T05:04:08;9.47;;;2.00;;
3341;SDS011;1684;50.748;6.154;2023-04-20T05:06:37;6.27;;;3.37;;
3341;SDS011;1684;50.748;6.154;2023-04-20T05:09:07;4.80;;;3.07;;
3341;SDS011;1684;50.748;6.154;2023-04-20T05:11:35;3.10;;;1.77;;
3341;SDS011;1684;50.748;6.154;2023-04-20T05:14:03;5.80;;;3.80;;
3341;SDS011;1684;50.748;6.154;2023-04-20T05:16:31;4.70;;;3.17;;
3341;SDS011;1684;50.748;6.154;2023-04-20T05:19:00;3.83;;;3.10;;
3341;SDS011;1684;50.748;6.154;2023-04-20T05:21:29;6.30;;;3.00;;
3341;SDS011;1684;50.748;6.154;2023-04-20T05:23:57;2.10;;;1.30;;
3341;SDS011;1684;50.748;6.154;2023-04-20T05:26:27;9.40;;;5.13;;
3341;SDS011;1684;50.748;6.154;2023-04-20T05:28:55;5.20;;;3.67;;
3341;SDS011;1684;50.748;6.154;2023-04-20T05:31:24;8.10;;;4.43;;
3341;SDS011;1684;50.748;6.154;2023-04-20T05:33:52;6.80;;;4.17;;
3341;SDS011;1684;50.748;6.154;2023-04-20T05:36:21;6.87;;;3.63;;
3341;SDS011;1684;50.748;6.154;2023-04-20T05:38:49;7.97;;;4.60;;
3341;SDS011;1684;50.748;6.154;2023-04-20T05:41:17;9.10;;;5.03;;
3341;SDS011;1684;50.748;6.154;2023-04-20T05:43:53;4.83;;;3.57;;
3341;SDS011;1684;50.748;6.154;2023-04-20T05:46:22;6.90;;;4.30;;
3341;SDS011;1684;50.748;6.154;2023-04-20T05:48:50;7.30;;;4.83;;
3341;SDS011;1684;50.748;6.154;2023-04-20T05:51:18;9.53;;;4.40;;
3341;SDS011;1684;50.748;6.154;2023-04-20T05:53:47;7.30;;;4.70;;
3341;SDS011;1684;50.748;6.154;2023-04-20T05:56:15;7.53;;;3.10;;
3341;SDS011;1684;50.748;6.154;2023-04-20T05:58:44;6.37;;;5.27;;
3341;SDS011;1684;50.748;6.154;2023-04-20T06:01:14;8.10;;;6.00;;
3341;SDS011;1684;50.748;6.154;2023-04-20T06:03:42;10.87;;;6.03;;
3341;SDS011;1684;50.748;6.154;2023-04-20T06:06:11;8.47;;;3.67;;
3341;SDS011;1684;50.748;6.154;2023-04-20T06:08:41;4.10;;;3.30;;
3341;SDS011;1684;50.748;6.154;2023-04-20T06:11:10;6.93;;;4.00;;
3341;SDS011;1684;50.748;6.154;2023-04-20T06:13:38;9.70;;;3.10;;
3341;SDS011;1684;50.748;6.154;2023-04-20T06:16:06;6.67;;;4.00;;
3341;SDS011;1684;50.748;6.154;2023-04-20T06:18:37;7.07;;;4.27;;
3341;SDS011;1684;50.748;6.154;2023-04-20T06:21:07;2.33;;;1.17;;
3341;SDS011;1684;50.748;6.154;2023-04-20T06:23:36;6.40;;;2.93;;
3341;SDS011;1684;50.748;6.154;2023-04-20T06:26:04;3.53;;;2.20;;
3341;SDS011;1684;50.748;6.154;2023-04-20T06:28:34;6.57;;;3.83;;
3341;SDS011;1684;50.748;6.154;2023-04-20T06:31:03;3.23;;;1.93;;
3341;SDS011;1684;50.748;6.154;2023-04-20T06:33:31;3.37;;;1.47;;
3341;SDS011;1684;50.748;6.154;2023-04-20T06:36:01;13.33;;;4.10;;
3341;SDS011;1684;50.748;6.154;2023-04-20T06:38:29;9.10;;;4.00;;
3341;SDS011;1684;50.748;6.154;2023-04-20T06:40:57;8.30;;;4.40;;
3341;SDS011;1684;50.748;6.154;2023-04-20T06:43:27;10.07;;;5.87;;
3341;SDS011;1684;50.748;6.154;2023-04-20T06:45:56;10.97;;;5.90;;
3341;SDS011;1684;50.748;6.154;2023-04-20T06:48:24;8.20;;;5.53;;
3341;SDS011;1684;50.748;6.154;2023-04-20T06:50:58;12.50;;;6.70;;
3341;SDS011;1684;50.748;6.154;2023-04-20T06:53:27;8.13;;;5.43;;
3341;SDS011;1684;50.748;6.154;2023-04-20T06:55:56;10.50;;;6.93;;
3341;SDS011;1684;50.748;6.154;2023-04-20T06:58:24;9.67;;;6.77;;
3341;SDS011;1684;50.748;6.154;2023-04-20T07:00:52;10.67;;;6.70;;
3341;SDS011;1684;50.748;6.154;2023-04-20T07:03:20;12.20;;;6.50;;
3341;SDS011;1684;50.748;6.154;2023-04-20T07:05:49;10.97;;;7.83;;
3341;SDS011;1684;50.748;6.154;2023-04-20T07:08:17;11.03;;;5.87;;
3341;SDS011;1684;50.748;6.154;2023-04-20T07:10:47;8.13;;;5.83;;
3341;SDS011;1684;50.748;6.154;2023-04-20T07:13:15;8.53;;;7.73;;
3341;SDS011;1684;50.748;6.154;2023-04-20T07:15:44;13.13;;;7.67;;
3341;SDS011;1684;50.748;6.154;2023-04-20T07:18:12;13.57;;;7.40;;
3341;SDS011;1684;50.748;6.154;2023-04-20T07:20:41;11.07;;;7.17;;
3341;SDS011;1684;50.748;6.154;2023-04-20T07:23:09;13.93;;;7.00;;
3341;SDS011;1684;50.748;6.154;2023-04-20T07:25:37;13.27;;;7.10;;
3341;SDS011;1684;50.748;6.154;2023-04-20T07:28:07;8.67;;;6.77;;
3341;SDS011;1684;50.748;6.154;2023-04-20T07:30:35;13.37;;;8.73;;
3341;SDS011;1684;50.748;6.154;2023-04-20T07:33:04;19.33;;;8.40;;
3341;SDS011;1684;50.748;6.154;2023-04-20T07:35:33;12.30;;;8.37;;
3341;SDS011;1684;50.748;6.154;2023-04-20T07:38:01;13.33;;;8.67;;
3341;SDS011;1684;50.748;6.154;2023-04-20T07:40:29;15.60;;;8.17;;
3341;SDS011;1684;50.748;6.154;2023-04-20T07:42:58;15.90;;;9.00;;
3341;SDS011;1684;50.748;6.154;2023-04-20T07:45:27;15.37;;;8.50;;
3341;SDS011;1684;50.748;6.154;2023-04-20T07:47:55;13.83;;;8.83;;
3341;SDS011;1684;50.748;6.154;2023-04-20T07:50:26;12.73;;;8.37;;
3341;SDS011;1684;50.748;6.154;2023-04-20T07:52:55;9.97;;;7.13;;
3341;SDS011;1684;50.748;6.154;2023-04-20T07:55:23;12.70;;;8.57;;
3341;SDS011;1684;50.748;6.154;2023-04-20T07:57:51;14.63;;;10.40;;
3341;SDS011;1684;50.748;6.154;2023-04-20T08:00:19;13.20;;;5.73;;
3341;SDS011;1684;50.748;6.154;2023-04-20T08:02:49;12.23;;;7.83;;
3341;SDS011;1684;50.748;6.154;2023-04-20T08:05:17;18.67;;;10.00;;
3341;SDS011;1684;50.748;6.154;2023-04-20T08:07:46;17.40;;;10.20;;
3341;SDS011;1684;50.748;6.154;2023-04-20T08:10:14;11.33;;;6.10;;
3341;SDS011;1684;50.748;6.154;2023-04-20T08:12:42;18.63;;;9.93;;
3341;SDS011;1684;50.748;6.154;2023-04-20T08:15:12;14.63;;;8.20;;
3341;SDS011;1684;50.748;6.154;2023-04-20T08:17:40;13.40;;;8.30;;
3341;SDS011;1684;50.748;6.154;2023-04-20T08:20:10;14.23;;;8.00;;
3341;SDS011;1684;50.748;6.154;2023-04-20T08:22:38;13.70;;;9.13;;
3341;SDS011;1684;50.748;6.154;2023-04-20T08:25:07;17.60;;;10.73;;
3341;SDS011;1684;50.748;6.154;2023-04-20T08:27:35;13.80;;;6.77;;
3341;SDS011;1684;50.748;6.154;2023-04-20T08:30:04;8.60;;;4.80;;
3341;SDS011;1684;50.748;6.154;2023-04-20T08:32:33;8.03;;;5.33;;
3341;SDS011;1684;50.748;6.154;2023-04-20T08:35:01;12.60;;;8.07;;
3341;SDS011;1684;50.748;6.154;2023-04-20T08:37:31;12.77;;;8.70;;
3341;SDS011;1684;50.748;6.154;2023-04-20T08:39:59;12.07;;;8.13;;
3341;SDS011;1684;50.748;6.154;2023-04-20T08:42:27;14.07;;;9.97;;
3341;SDS011;1684;50.748;6.154;2023-04-20T08:44:56;12.70;;;8.77;;
3341;SDS011;1684;50.748;6.154;2023-04-20T08:47:24;13.80;;;10.20;;
3341;SDS011;1684;50.748;6.154;2023-04-20T08:49:52;15.23;;;9.80;;
3341;SDS011;1684;50.748;6.154;2023-04-20T08:52:21;14.17;;;9.80;;
3341;SDS011;1684;50.748;6.154;2023-04-20T08:54:50;14.40;;;7.60;;
3341;SDS011;1684;50.748;6.154;2023-04-20T08:57:23;18.20;;;10.30;;
3341;SDS011;1684;50.748;6.154;2023-04-20T08:59:51;17.53;;;11.87;;
3341;SDS011;1684;50.748;6.154;2023-04-20T09:02:21;11.57;;;7.20;;
3341;SDS011;1684;50.748;6.154;2023-04-20T09:04:59;12.57;;;7.37;;
3341;SDS011;1684;50.748;6.154;2023-04-20T09:07:27;19.27;;;11.87;;
3341;SDS011;1684;50.748;6.154;2023-04-20T09:09:57;19.70;;;11.23;;
3341;SDS011;1684;50.748;6.154;2023-04-20T09:12:26;25.77;;;16.70;;
3341;SDS011;1684;50.748;6.154;2023-04-20T09:14:55;23.20;;;16.57;;
3341;SDS011;1684;50.748;6.154;2023-04-20T09:17:30;18.93;;;13.37;;
3341;SDS011;1684;50.748;6.154;2023-04-20T09:19:59;23.83;;;14.10;;
3341;SDS011;1684;50.748;6.154;2023-04-20T09:22:30;21.07;;;12.87;;
3341;SDS011;1684;50.748;6.154;2023-04-20T09:25:00;22.23;;;12.50;;
3341;SDS011;1684;50.748;6.154;2023-04-20T09:27:38;15.77;;;12.73;;
3341;SDS011;1684;50.748;6.154;2023-04-20T09:30:07;18.33;;;13.90;;
3341;SDS011;1684;50.748;6.154;2023-04-20T09:32:35;12.80;;;10.20;;
3341;SDS011;1684;50.748;6.154;2023-04-20T09:35:04;13.80;;;9.77;;
3341;SDS011;1684;50.748;6.154;2023-04-20T09:37:33;15.20;;;10.13;;
3341;SDS011;1684;50.748;6.154;2023-04-20T09:40:03;14.13;;;11.30;;
3341;SDS011;1684;50.748;6.154;2023-04-20T09:42:33;11.87;;;9.23;;
3341;SDS011;1684;50.748;6.154;2023-04-20T09:45:04;13.63;;;9.53;;
3341;SDS011;1684;50.748;6.154;2023-04-20T09:47:33;15.30;;;9.90;;
3341;SDS011;1684;50.748;6.154;2023-04-20T09:50:08;13.67;;;9.13;;
3341;SDS011;1684;50.748;6.154;2023-04-20T09:52:57;13.07;;;10.13;;
3341;SDS011;1684;50.748;6.154;2023-04-20T09:55:26;13.27;;;9.10;;
3341;SDS011;1684;50.748;6.154;2023-04-20T09:57:57;12.30;;;9.07;;
3341;SDS011;1684;50.748;6.154;2023-04-20T10:00:25;11.50;;;9.47;;
3341;SDS011;1684;50.748;6.154;2023-04-20T10:02:54;13.23;;;9.13;;
3341;SDS011;1684;50.748;6.154;2023-04-20T10:05:31;12.60;;;7.60;;
3341;SDS011;1684;50.748;6.154;2023-04-20T10:08:00;10.03;;;7.83;;
3341;SDS011;1684;50.748;6.154;2023-04-20T10:10:41;7.70;;;5.13;;
3341;SDS011;1684;50.748;6.154;2023-04-20T10:13:09;6.70;;;5.63;;
3341;SDS011;1684;50.748;6.154;2023-04-20T10:15:38;9.30;;;7.03;;
3341;SDS011;1684;50.748;6.154;2023-04-20T10:18:16;6.70;;;6.00;;
3341;SDS011;1684;50.748;6.154;2023-04-20T10:20:45;8.70;;;4.80;;
3341;SDS011;1684;50.748;6.154;2023-04-20T10:23:14;8.10;;;5.20;;
3341;SDS011;1684;50.748;6.154;2023-04-20T10:25:55;6.10;;;3.60;;
3341;SDS011;1684;50.748;6.154;2023-04-20T10:28:23;2.97;;;2.60;;
3341;SDS011;1684;50.748;6.154;2023-04-20T10:30:52;5.70;;;4.00;;
3341;SDS011;1684;50.748;6.154;2023-04-20T10:33:21;6.13;;;3.60;;
3341;SDS011;1684;50.748;6.154;2023-04-20T10:35:50;3.40;;;2.53;;
3341;SDS011;1684;50.748;6.154;2023-04-20T10:38:27;5.80;;;3.53;;
3341;SDS011;1684;50.748;6.154;2023-04-20T10:40:57;6.47;;;4.17;;
3341;SDS011;1684;50.748;6.154;2023-04-20T10:43:32;5.40;;;3.97;;
3341;SDS011;1684;50.748;6.154;2023-04-20T10:46:11;4.40;;;2.70;;
3341;SDS011;1684;50.748;6.154;2023-04-20T10:48:47;4.47;;;3.80;;
3341;SDS011;1684;50.748;6.154;2023-04-20T10:51:16;5.30;;;4.20;;
3341;SDS011;1684;50.748;6.154;2023-04-20T10:53:44;3.57;;;1.60;;
3341;SDS011;1684;50.748;6.154;2023-04-20T10:56:14;4.60;;;4.10;;
3341;SDS011;1684;50.748;6.154;2023-04-20T10:58:42;4.90;;;3.43;;
3341;SDS011;1684;50.748;6.154;2023-04-20T11:01:10;7.17;;;4.80;;
3341;SDS011;1684;50.748;6.154;2023-04-20T11:03:38;4.67;;;2.87;;
3341;SDS011;1684;50.748;6.154;2023-04-20T11:06:07;7.90;;;5.03;;
3341;SDS011;1684;50.748;6.154;2023-04-20T11:08:36;8.73;;;4.40;;
3341;SDS011;1684;50.748;6.154;2023-04-20T11:11:04;6.37;;;4.47;;
3341;SDS011;1684;50.748;6.154;2023-04-20T11:13:36;6.57;;;4.97;;
3341;SDS011;1684;50.748;6.154;2023-04-20T11:16:08;9.40;;;4.50;;
3341;SDS011;1684;50.748;6.154;2023-04-20T11:18:45;5.03;;;3.30;;
3341;SDS011;1684;50.748;6.154;2023-04-20T11:21:13;4.87;;;2.67;;
3341;SDS011;1684;50.748;6.154;2023-04-20T11:23:41;4.00;;;3.40;;
3341;SDS011;1684;50.748;6.154;2023-04-20T11:26:10;5.50;;;4.37;;
3341;SDS011;1684;50.748;6.154;2023-04-20T11:28:39;5.93;;;4.07;;
3341;SDS011;1684;50.748;6.154;2023-04-20T11:31:20;4.43;;;4.00;;
3341;SDS011;1684;50.748;6.154;2023-04-20T11:33:48;6.00;;;4.07;;
3341;SDS011;1684;50.748;6.154;2023-04-20T11:36:17;5.13;;;3.67;;
3341;SDS011;1684;50.748;6.154;2023-04-20T11:38:46;6.30;;;5.23;;
3341;SDS011;1684;50.748;6.154;2023-04-20T11:41:15;5.23;;;4.23;;
3341;SDS011;1684;50.748;6.154;2023-04-20T11:43:45;7.07;;;5.20;;
3341;SDS011;1684;50.748;6.154;2023-04-20T11:46:14;3.93;;;3.40;;
3341;SDS011;1684;50.748;6.154;2023-04-20T11:48:43;7.30;;;4.10;;
3341;SDS011;1684;50.748;6.154;2023-04-20T11:51:11;4.87;;;3.53;;
3341;SDS011;1684;50.748;6.154;2023-04-20T11:53:40;5.43;;;3.97;;
3341;SDS011;1684;50.748;6.154;2023-04-20T11:56:08;5.90;;;4.00;;
3341;SDS011;1684;50.748;6.154;2023-04-20T11:58:36;5.33;;;4.60;;
3341;SDS011;1684;50.748;6.154;2023-04-20T12:01:06;5.33;;;4.77;;
3341;SDS011;1684;50.748;6.154;2023-04-20T12:03:34;5.33;;;3.93;;
3341;SDS011;1684;50.748;6.154;2023-04-20T12:06:03;8.80;;;5.27;;
3341;SDS011;1684;50.748;6.154;2023-04-20T12:08:31;12.30;;;7.07;;
3341;SDS011;1684;50.748;6.154;2023-04-20T12:10:59;5.10;;;3.73;;
3341;SDS011;1684;50.748;6.154;2023-04-20T12:13:28;7.97;;;5.37;;
3341;SDS011;1684;50.748;6.154;2023-04-20T12:15:56;6.17;;;4.17;;
3341;SDS011;1684;50.748;6.154;2023-04-20T12:18:26;3.70;;;1.63;;
3341;SDS011;1684;50.748;6.154;2023-04-20T12:20:54;6.00;;;4.00;;
3341;SDS011;1684;50.748;6.154;2023-04-20T12:23:22;7.90;;;4.93;;
3341;SDS011;1684;50.748;6.154;2023-04-20T12:25:51;4.43;;;2.80;;
3341;SDS011;1684;50.748;6.154;2023-04-20T12:28:19;5.00;;;3.20;;
3341;SDS011;1684;50.748;6.154;2023-04-20T12:30:47;4.10;;;2.63;;
3341;SDS011;1684;50.748;6.154;2023-04-20T12:33:16;4.43;;;3.60;;
3341;SDS011;1684;50.748;6.154;2023-04-20T12:35:45;6.53;;;4.97;;
3341;SDS011;1684;50.748;6.154;2023-04-20T12:38:13;7.10;;;4.83;;
3341;SDS011;1684;50.748;6.154;2023-04-20T12:40:42;6.90;;;4.77;;
3341;SDS011;1684;50.748;6.154;2023-04-20T12:43:10;6.43;;;4.67;;
3341;SDS011;1684;50.748;6.154;2023-04-20T12:45:38;7.10;;;4.73;;
3341;SDS011;1684;50.748;6.154;2023-04-20T12:48:07;6.57;;;4.27;;
3341;SDS011;1684;50.748;6.154;2023-04-20T12:50:35;6.47;;;4.70;;
3341;SDS011;1684;50.748;6.154;2023-04-20T12:53:06;5.30;;;3.57;;
3341;SDS011;1684;50.748;6.154;2023-04-20T12:55:34;6.03;;;5.40;;
3341;SDS011;1684;50.748;6.154;2023-04-20T12:58:03;5.10;;;4.53;;
3341;SDS011;1684;50.748;6.154;2023-04-20T13:00:31;9.33;;;5.57;;
3341;SDS011;1684;50.748;6.154;2023-04-20T13:02:59;7.27;;;5.80;;
3341;SDS011;1684;50.748;6.154;2023-04-20T13:05:28;6.43;;;4.70;;
3341;SDS011;1684;50.748;6.154;2023-04-20T13:07:56;5.50;;;4.33;;
3341;SDS011;1684;50.748;6.154;2023-04-20T13:10:26;5.60;;;4.53;;
3341;SDS011;1684;50.748;6.154;2023-04-20T13:12:54;6.23;;;4.70;;
3341;SDS011;1684;50.748;6.154;2023-04-20T13:15:24;6.40;;;4.77;;
3341;SDS011;1684;50.748;6.154;2023-04-20T13:18:04;9.40;;;5.83;;
3341;SDS011;1684;50.748;6.154;2023-04-20T13:20:34;8.97;;;5.30;;
3341;SDS011;1684;50.748;6.154;2023-04-20T13:23:03;7.70;;;5.20;;
3341;SDS011;1684;50.748;6.154;2023-04-20T13:25:33;7.80;;;5.33;;
3341;SDS011;1684;50.748;6.154;2023-04-20T13:28:03;6.50;;;4.23;;
3341;SDS011;1684;50.748;6.154;2023-04-20T13:30:32;9.90;;;6.23;;
3341;SDS011;1684;50.748;6.154;2023-04-20T13:33:00;9.17;;;6.77;;
3341;SDS011;1684;50.748;6.154;2023-04-20T13:35:28;7.50;;;5.50;;
3341;SDS011;1684;50.748;6.154;2023-04-20T13:37:57;6.40;;;4.37;;
3341;SDS011;1684;50.748;6.154;2023-04-20T13:40:25;9.07;;;7.07;;
3341;SDS011;1684;50.748;6.154;2023-04-20T13:42:54;9.37;;;6.90;;
3341;SDS011;1684;50.748;6.154;2023-04-20T13:45:23;10.90;;;7.37;;
3341;SDS011;1684;50.748;6.154;2023-04-20T13:47:53;11.37;;;8.20;;
3341;SDS011;1684;50.748;6.154;2023-04-20T13:50:21;9.90;;;6.33;;
3341;SDS011;1684;50.748;6.154;2023-04-20T13:52:49;8.73;;;5.53;;
3341;SDS011;1684;50.748;6.154;2023-04-20T13:55:18;12.17;;;8.13;;
3341;SDS011;1684;50.748;6.154;2023-04-20T13:57:46;7.10;;;5.43;;
3341;SDS011;1684;50.748;6.154;2023-04-20T14:00:16;6.63;;;4.30;;
3341;SDS011;1684;50.748;6.154;2023-04-20T14:02:44;12.73;;;7.60;;
3341;SDS011;1684;50.748;6.154;2023-04-20T14:05:13;11.53;;;6.83;;
3341;SDS011;1684;50.748;6.154;2023-04-20T14:07:41;9.27;;;7.63;;
3341;SDS011;1684;50.748;6.154;2023-04-20T14:10:09;13.20;;;8.00;;
3341;SDS011;1684;50.748;6.154;2023-04-20T14:12:38;7.80;;;5.83;;
3341;SDS011;1684;50.748;6.154;2023-04-20T14:15:07;11.80;;;8.50;;
3341;SDS011;1684;50.748;6.154;2023-04-20T14:17:36;12.67;;;8.43;;
3341;SDS011;1684;50.748;6.154;2023-04-20T14:20:05;7.60;;;5.00;;
3341;SDS011;1684;50.748;6.154;2023-04-20T14:22:34;11.63;;;7.77;;
3341;SDS011;1684;50.748;6.154;2023-04-20T14:25:03;11.73;;;7.30;;
3341;SDS011;1684;50.748;6.154;2023-04-20T14:27:31;9.30;;;6.47;;
3341;SDS011;1684;50.748;6.154;2023-04-20T14:29:59;12.10;;;6.10;;
3341;SDS011;1684;50.748;6.154;2023-04-20T14:32:28;10.93;;;6.83;;
3341;SDS011;1684;50.748;6.154;2023-04-20T14:34:58;8.60;;;6.00;;
3341;SDS011;1684;50.748;6.154;2023-04-20T14:37:29;9.17;;;6.40;;
3341;SDS011;1684;50.748;6.154;2023-04-20T14:39:58;9.17;;;6.30;;
3341;SDS011;1684;50.748;6.154;2023-04-20T14:42:26;10.73;;;7.60;;
3341;SDS011;1684;50.748;6.154;2023-04-20T14:44:54;8.73;;;5.13;;
3341;SDS011;1684;50.748;6.154;2023-04-20T14:47:23;9.43;;;6.90;;
3341;SDS011;1684;50.748;6.154;2023-04-20T14:49:51;6.03;;;3.97;;
3341;SDS011;1684;50.748;6.154;2023-04-20T14:52:20;8.57;;;6.93;;
3341;SDS011;1684;50.748;6.154;2023-04-20T14:54:49;11.20;;;7.60;;
3341;SDS011;1684;50.748;6.154;2023-04-20T14:57:17;9.23;;;6.30;;
3341;SDS011;1684;50.748;6.154;2023-04-20T14:59:45;9.37;;;7.47;;
3341;SDS011;1684;50.748;6.154;2023-04-20T15:02:13;7.83;;;5.33;;
3341;SDS011;1684;50.748;6.154;2023-04-20T15:04:43;9.63;;;5.60;;
3341;SDS011;1684;50.748;6.154;2023-04-20T15:07:12;7.30;;;5.57;;
3341;SDS011;1684;50.748;6.154;2023-04-20T15:09:41;11.60;;;6.37;;
3341;SDS011;1684;50.748;6.154;2023-04-20T15:12:09;8.70;;;6.53;;
3341;SDS011;1684;50.748;6.154;2023-04-20T15:14:38;7.80;;;5.90;;
3341;SDS011;1684;50.748;6.154;2023-04-20T15:17:06;8.67;;;6.80;;
3341;SDS011;1684;50.748;6.154;2023-04-20T15:19:34;10.33;;;5.90;;
3341;SDS011;1684;50.748;6.154;2023-04-20T15:22:02;7.90;;;4.80;;